cnr.cn alexa rank chart, cnr.cn alexa rank daily changes

cnr.cn alexa rank chart, cnr.cn alexa rank daily changes

cnr.cn
Actual rank:
15 611

RANK HISTORY

Date Rank Diff
2017/10/20 15 611 -340
2017/10/19 15 951 -371
2017/10/18 16 322 +304
2017/10/17 16 018 +56
2017/10/16 15 962 +950
2017/10/14 15 012 -43
2017/10/13 15 055 -92
2017/10/12 15 147 -314
2017/10/11 15 461 +469
2017/10/10 14 992 +40
2017/10/09 14 952 +559
2017/10/08 14 393 +79
2017/10/07 14 314 +170
2017/10/06 14 144 +242
2017/10/05 13 902 -54
2017/10/04 13 956 +421
2017/10/03 13 535 -1
2017/10/02 13 536 -158
2017/10/01 13 694 +631
2017/09/30 13 063 -108
2017/09/29 13 171 -60
2017/09/28 13 231 -15
2017/09/27 13 246 +181
2017/09/26 13 065 +150
2017/09/25 12 915 -12
2017/09/24 12 927 +31
2017/09/23 12 896 -189
2017/09/22 13 085 +369
2017/09/20 12 716 +113
2017/09/19 12 603 -246
2017/09/18 12 849 +33
2017/09/17 12 816 +120
2017/09/16 12 696 -86
2017/09/15 12 782 -528
2017/09/14 13 310 -219
2017/09/13 13 529 +171
2017/09/12 13 358 +192
2017/09/11 13 166 -169
2017/09/10 13 335 -318
2017/09/09 13 653 +133
2017/09/08 13 520 +1 892
2017/09/07 11 628 +1 477
2017/09/06 10 151 +1 252
2017/09/05 8 899 +938
2017/09/04 7 961 +888
2017/09/03 7 073 +492
2017/09/02 6 581 +614
2017/09/01 5 967 +351
2017/08/31 5 616 +291
2017/08/30 5 325 +368
2017/08/29 4 957 +275
2017/08/28 4 682 +243
2017/08/27 4 439 +233
2017/08/26 4 206 +184
2017/08/25 4 022 +198
2017/08/24 3 824 +128
2017/08/23 3 696 +158
2017/08/22 3 538 +135
2017/08/21 3 403

WIDGET FOR YOUR SITE

DOMAINS WITH THE NEAREST RANK

Domain Rank
eefocus.com 15 606
romper.com 15 607
marapcana.pw 15 608
iskysoft.us 15 609
preloved.co.uk 15 610
cnr.cn 15 611
rp2rp.com 15 612
utm.my 15 613
sexgalaxy.net 15 614
atlanticgam.es 15 615
zalando.se 15 616

DOMAINS WITH THE NEAREST RANK BY TLD .cn

Domain Rank
mnw.cn 14 857
lightnovel.cn 15 194
pc0359.cn 15 245
6.cn 15 410
hsw.cn 15 466
cnr.cn 15 611
juggly.cn 15 729
81.cn 15 775
crystalradio.cn 15 890
icourses.cn 15 894
gtimg.cn 15 950